createdAt,value
2022-10-13T00:00:51.116Z,62.33
2022-10-13T00:03:18.219Z,61.96
2022-10-13T00:05:47.789Z,62.19
2022-10-13T00:08:21.262Z,62.05
2022-10-13T00:10:50.405Z,62.15
2022-10-13T00:13:21.034Z,61.78
2022-10-13T00:15:48.808Z,61.58
2022-10-13T00:18:16.766Z,62.13
2022-10-13T00:20:52.427Z,62.76
2022-10-13T00:23:19.515Z,62.66
2022-10-13T00:25:48.772Z,62.75
2022-10-13T00:28:18.260Z,62.74
2022-10-13T00:30:46.273Z,62.92
2022-10-13T00:33:14.600Z,63.55
2022-10-13T00:35:43.623Z,64.19
2022-10-13T00:38:12.072Z,63.05
2022-10-13T00:40:56.089Z,63.41
2022-10-13T00:43:27.338Z,63.83
2022-10-13T00:45:54.620Z,63.15
2022-10-13T00:48:26.671Z,63.72
2022-10-13T00:50:54.038Z,62.84
2022-10-13T00:53:24.777Z,62.90
2022-10-13T00:55:52.989Z,62.42
2022-10-13T00:58:25.341Z,62.08
2022-10-13T01:00:53.607Z,62.42
2022-10-13T01:03:21.628Z,63.12
2022-10-13T01:05:49.516Z,63.77
2022-10-13T01:08:18.094Z,64.32
2022-10-13T01:10:51.704Z,65.42
2022-10-13T01:13:38.176Z,65.30
2022-10-13T01:16:10.832Z,65.79
2022-10-13T01:18:57.185Z,65.70
2022-10-13T01:21:52.560Z,65.57
2022-10-13T01:24:27.159Z,65.78
2022-10-13T01:27:24.708Z,65.70
2022-10-13T01:30:08.564Z,66.38
2022-10-13T01:32:49.220Z,66.69
2022-10-13T01:35:32.391Z,66.12
2022-10-13T01:38:24.149Z,66.31
2022-10-13T01:41:05.185Z,66.04
2022-10-13T01:43:57.994Z,66.51
2022-10-13T01:46:29.624Z,66.24
2022-10-13T01:49:00.241Z,65.69
2022-10-13T01:51:30.305Z,66.20
2022-10-13T01:53:57.705Z,66.04
2022-10-13T01:56:24.748Z,66.54
2022-10-13T01:58:54.083Z,66.84
2022-10-13T02:01:55.761Z,67.10
2022-10-13T02:05:03.192Z,67.75
2022-10-13T02:07:42.335Z,67.90
2022-10-13T02:10:23.042Z,68.32
2022-10-13T02:12:59.604Z,68.64
2022-10-13T02:15:35.152Z,68.69
2022-10-13T02:18:05.685Z,69.06
2022-10-13T02:20:33.792Z,68.77
2022-10-13T02:23:09.286Z,69.19
2022-10-13T02:25:37.061Z,68.68
2022-10-13T02:28:04.435Z,68.75
2022-10-13T02:30:36.096Z,69.31
2022-10-13T02:33:03.478Z,69.00
2022-10-13T02:35:31.164Z,68.36
2022-10-13T02:38:01.245Z,68.02
2022-10-13T02:40:28.401Z,67.47
2022-10-13T02:42:55.574Z,67.28
2022-10-13T02:45:22.683Z,66.36
2022-10-13T02:47:50.291Z,69.68
2022-10-13T02:50:17.322Z,69.77
2022-10-13T02:52:44.294Z,69.29
2022-10-13T02:55:11.172Z,70.75
2022-10-13T02:57:38.115Z,70.58
2022-10-13T03:00:07.320Z,70.49
2022-10-13T03:02:34.208Z,70.42
2022-10-13T03:05:01.233Z,70.00
2022-10-13T03:07:28.092Z,69.89
2022-10-13T03:09:54.939Z,67.99
2022-10-13T03:12:22.089Z,67.58
2022-10-13T03:14:49.317Z,68.67
2022-10-13T03:17:16.174Z,69.97
2022-10-13T03:19:43.071Z,71.08
2022-10-13T03:22:15.522Z,71.41
2022-10-13T03:24:43.055Z,69.86
2022-10-13T03:27:10.029Z,68.09
2022-10-13T03:29:36.994Z,68.10
2022-10-13T03:32:04.179Z,67.86
2022-10-13T03:34:31.190Z,70.02
2022-10-13T03:36:58.063Z,70.02
2022-10-13T03:39:25.038Z,68.92
2022-10-13T03:41:51.955Z,68.79
2022-10-13T03:44:18.864Z,67.93
2022-10-13T03:46:45.725Z,67.49
2022-10-13T03:49:12.939Z,66.34
2022-10-13T03:51:40.207Z,66.07
2022-10-13T03:54:07.198Z,65.15
2022-10-13T03:56:34.122Z,65.07
2022-10-13T03:59:02.145Z,66.30
2022-10-13T04:01:30.856Z,66.12
2022-10-13T04:03:59.232Z,65.16
2022-10-13T04:06:26.851Z,63.96
2022-10-13T04:08:54.648Z,64.25
2022-10-13T04:11:22.616Z,64.11
2022-10-13T04:13:57.424Z,63.64
2022-10-13T04:16:28.492Z,63.78
2022-10-13T04:19:03.318Z,65.13
2022-10-13T04:21:33.406Z,66.73
2022-10-13T04:24:01.310Z,68.12
2022-10-13T04:26:31.308Z,68.40
2022-10-13T04:28:59.538Z,69.16
2022-10-13T04:31:28.848Z,69.19
2022-10-13T04:33:55.844Z,68.84
2022-10-13T04:36:23.159Z,68.51
2022-10-13T04:38:51.275Z,67.32
2022-10-13T04:41:19.102Z,66.96
2022-10-13T04:43:53.376Z,63.59
2022-10-13T04:46:23.918Z,59.36
2022-10-13T04:48:51.664Z,56.29
2022-10-13T04:51:24.569Z,51.16
2022-10-13T04:53:56.349Z,48.63
2022-10-13T04:56:23.495Z,45.93
2022-10-13T04:58:50.470Z,44.41
2022-10-13T05:01:22.274Z,42.50
2022-10-13T05:03:54.588Z,41.30
2022-10-13T05:06:23.800Z,38.15
2022-10-13T05:08:56.149Z,35.82
2022-10-13T05:11:24.499Z,33.77
2022-10-13T05:13:51.447Z,33.83
2022-10-13T05:16:20.038Z,33.98
2022-10-13T05:18:47.497Z,36.43
2022-10-13T05:21:23.445Z,35.78
2022-10-13T05:23:54.371Z,33.21
2022-10-13T05:26:23.020Z,31.95
2022-10-13T05:28:50.192Z,30.25
2022-10-13T05:31:23.089Z,30.80
2022-10-13T05:33:51.840Z,30.32
2022-10-13T05:36:25.231Z,30.40
2022-10-13T05:38:54.737Z,31.37
2022-10-13T05:41:22.574Z,30.44
2022-10-13T05:43:51.537Z,28.18
2022-10-13T05:46:18.402Z,27.79
2022-10-13T05:48:45.330Z,28.34
2022-10-13T05:51:20.119Z,29.70
2022-10-13T05:53:57.537Z,28.11
2022-10-13T05:56:30.216Z,29.49
2022-10-13T05:59:02.899Z,30.40
2022-10-13T06:01:33.024Z,28.24
2022-10-13T06:04:04.978Z,26.20
2022-10-13T06:06:33.023Z,24.44
2022-10-13T06:09:01.328Z,26.22
2022-10-13T06:11:28.289Z,25.67
2022-10-13T06:13:55.131Z,26.67
2022-10-13T06:16:22.085Z,24.67
2022-10-13T06:18:49.205Z,24.82
2022-10-13T06:21:16.089Z,26.41
2022-10-13T06:23:42.992Z,25.11
2022-10-13T06:26:09.860Z,22.97
2022-10-13T06:28:37.573Z,21.74
2022-10-13T06:31:07.480Z,21.39
2022-10-13T06:33:34.804Z,22.65
2022-10-13T06:36:04.098Z,23.38
2022-10-13T06:38:31.584Z,23.37
2022-10-13T06:41:03.028Z,22.65
2022-10-13T06:43:38.894Z,24.56
2022-10-13T06:46:10.841Z,24.14
2022-10-13T06:48:38.201Z,23.26
2022-10-13T06:51:07.442Z,25.99
2022-10-13T06:53:34.899Z,27.22
2022-10-13T06:56:04.942Z,28.63
2022-10-13T06:58:31.938Z,28.07
2022-10-13T07:00:58.869Z,25.46
2022-10-13T07:03:26.194Z,28.93
2022-10-13T07:05:53.477Z,29.07
2022-10-13T07:08:21.604Z,26.92
2022-10-13T07:10:48.949Z,25.91
2022-10-13T07:13:15.918Z,26.48
2022-10-13T07:15:42.858Z,27.44
2022-10-13T07:18:09.697Z,29.31
2022-10-13T07:20:36.544Z,29.19
2022-10-13T07:23:04.147Z,32.37
2022-10-13T07:25:32.147Z,33.00
2022-10-13T07:28:00.121Z,32.94
2022-10-13T07:30:27.637Z,31.98
2022-10-13T07:32:54.623Z,29.22
2022-10-13T07:35:25.812Z,26.81
2022-10-13T07:37:56.456Z,24.53
2022-10-13T07:40:23.839Z,23.74
2022-10-13T07:42:50.982Z,26.89
2022-10-13T07:45:18.180Z,28.18
2022-10-13T07:47:45.079Z,27.49
2022-10-13T07:50:12.026Z,26.88
2022-10-13T07:52:39.054Z,29.01
2022-10-13T07:55:06.834Z,29.58
2022-10-13T07:57:33.929Z,29.92
2022-10-13T08:00:01.121Z,29.44
2022-10-13T08:02:28.144Z,29.85
2022-10-13T08:04:54.985Z,32.29
2022-10-13T08:07:22.829Z,33.02
2022-10-13T08:09:50.027Z,33.58
2022-10-13T08:12:17.115Z,33.63
2022-10-13T08:14:44.581Z,33.02
2022-10-13T08:17:13.090Z,35.11
2022-10-13T08:19:39.969Z,36.58
2022-10-13T08:22:09.730Z,35.48
2022-10-13T08:24:37.303Z,34.59
2022-10-13T08:27:04.283Z,34.28
2022-10-13T08:29:33.873Z,34.10
2022-10-13T08:32:00.929Z,31.80
2022-10-13T08:34:27.956Z,29.72
2022-10-13T08:36:56.569Z,31.81
2022-10-13T08:39:25.157Z,30.14
2022-10-13T08:41:53.256Z,31.37
2022-10-13T08:47:36.196Z,32.50
2022-10-13T08:50:12.734Z,25.21
2022-10-13T08:52:47.339Z,24.35
2022-10-13T08:55:44.794Z,31.18
2022-10-13T08:58:33.031Z,32.57
2022-10-13T09:01:09.228Z,31.51
2022-10-13T09:03:48.634Z,32.99
2022-10-13T09:06:31.942Z,34.32
2022-10-13T09:09:04.696Z,34.01
2022-10-13T09:11:42.286Z,32.13
2022-10-13T09:14:12.639Z,32.36
2022-10-13T09:16:44.474Z,35.68
2022-10-13T09:19:27.864Z,34.93
2022-10-13T09:21:58.029Z,35.78
2022-10-13T09:24:27.063Z,35.34
2022-10-13T09:27:17.261Z,36.30
2022-10-13T09:29:45.303Z,35.76
2022-10-13T09:32:20.832Z,37.92
2022-10-13T09:34:48.527Z,39.02
2022-10-13T09:37:24.529Z,40.06
2022-10-13T09:40:13.075Z,40.24
2022-10-13T09:42:40.988Z,40.71
2022-10-13T09:45:17.141Z,40.27
2022-10-13T09:48:00.806Z,40.62
2022-10-13T09:50:30.145Z,39.41
2022-10-13T09:53:45.034Z,39.29
2022-10-13T09:56:23.676Z,40.37
2022-10-13T09:58:59.876Z,39.77
2022-10-13T10:01:34.710Z,41.40
2022-10-13T10:04:06.812Z,40.37
2022-10-13T10:06:35.060Z,39.68
2022-10-13T10:09:19.838Z,38.09
2022-10-13T10:11:50.220Z,38.10
2022-10-13T10:14:26.446Z,39.16
2022-10-13T10:17:02.510Z,38.70
2022-10-13T10:19:48.034Z,39.04
2022-10-13T10:22:52.430Z,40.92
2022-10-13T10:25:30.007Z,40.21
2022-10-13T10:28:29.597Z,40.27
2022-10-13T10:31:29.223Z,41.35
2022-10-13T10:34:28.705Z,41.81
2022-10-13T10:37:01.632Z,42.11
2022-10-13T10:39:38.871Z,43.19
2022-10-13T10:42:41.786Z,42.38
2022-10-13T10:45:17.369Z,42.48
2022-10-13T10:47:48.000Z,43.46
2022-10-13T10:50:17.311Z,43.30
2022-10-13T10:53:11.918Z,43.90
2022-10-13T10:55:53.621Z,43.12
2022-10-13T10:58:53.937Z,43.42
2022-10-13T11:01:24.397Z,43.59
2022-10-13T11:03:57.489Z,43.89
2022-10-13T11:06:36.468Z,42.59
2022-10-13T11:09:05.998Z,44.38
2022-10-13T11:11:37.670Z,44.99
2022-10-13T11:14:09.894Z,45.52
2022-10-13T11:16:41.532Z,45.13
2022-10-13T11:19:29.774Z,44.93
2022-10-13T11:21:59.428Z,44.51
2022-10-13T11:24:41.487Z,44.81
2022-10-13T11:27:16.723Z,45.51
2022-10-13T11:29:49.246Z,46.17
2022-10-13T11:32:30.549Z,45.54
2022-10-13T11:34:59.619Z,44.28
2022-10-13T11:37:32.285Z,43.26
2022-10-13T11:40:44.742Z,42.90
2022-10-13T11:43:14.489Z,42.92
2022-10-13T11:45:52.972Z,43.29
2022-10-13T11:48:42.306Z,44.43
2022-10-13T11:51:42.764Z,44.00
2022-10-13T11:54:21.901Z,44.30
2022-10-13T11:56:57.483Z,45.35
2022-10-13T11:59:37.691Z,44.56
2022-10-13T12:02:19.321Z,43.97
2022-10-13T12:05:01.329Z,43.43
2022-10-13T12:07:34.622Z,42.56
2022-10-13T12:10:05.822Z,42.63
2022-10-13T12:12:33.055Z,41.73
2022-10-13T12:15:02.740Z,42.58
2022-10-13T12:17:39.136Z,42.58
2022-10-13T12:20:24.521Z,41.70
2022-10-13T12:22:53.719Z,42.37
2022-10-13T12:25:26.851Z,43.05
2022-10-13T12:28:00.636Z,42.65
2022-10-13T12:30:37.293Z,43.32
2022-10-13T12:33:17.841Z,44.05
2022-10-13T12:35:44.759Z,43.59
2022-10-13T12:38:19.888Z,43.44
2022-10-13T12:40:53.652Z,44.08
2022-10-13T12:43:25.664Z,43.87
2022-10-13T12:45:52.964Z,44.85
2022-10-13T12:48:34.612Z,45.01
2022-10-13T12:51:28.216Z,44.50
2022-10-13T12:53:55.311Z,45.72
2022-10-13T12:56:29.664Z,47.28
2022-10-13T12:58:57.938Z,45.56
2022-10-13T13:01:31.057Z,44.76
2022-10-13T13:04:22.773Z,46.72
2022-10-13T13:07:30.329Z,47.90
2022-10-13T13:10:07.254Z,47.33
2022-10-13T13:12:35.663Z,46.54
2022-10-13T13:15:36.667Z,46.58
2022-10-13T13:18:24.637Z,45.24
2022-10-13T13:20:51.653Z,46.16
2022-10-13T13:23:19.510Z,44.69
2022-10-13T13:26:06.430Z,46.88
2022-10-13T13:28:33.781Z,47.47
2022-10-13T13:31:03.437Z,47.80
2022-10-13T13:33:30.524Z,47.73
2022-10-13T13:35:58.895Z,46.86
2022-10-13T13:38:25.895Z,47.21
2022-10-13T13:40:52.726Z,47.27
2022-10-13T13:43:19.559Z,47.01
2022-10-13T13:45:46.632Z,47.10
2022-10-13T13:48:14.446Z,45.94
2022-10-13T13:50:41.380Z,46.21
2022-10-13T13:53:08.298Z,43.70
2022-10-13T13:55:36.049Z,43.89
2022-10-13T13:58:05.348Z,43.71
2022-10-13T14:00:32.265Z,44.55
2022-10-13T14:02:59.264Z,43.67
2022-10-13T14:05:26.193Z,43.32
2022-10-13T14:07:55.195Z,44.21
2022-10-13T14:10:22.325Z,41.87
2022-10-13T14:12:49.225Z,42.55
2022-10-13T14:15:16.230Z,45.32
2022-10-13T14:17:43.191Z,46.67
2022-10-13T14:20:10.772Z,43.96
2022-10-13T14:22:39.294Z,43.41
2022-10-13T14:25:07.758Z,44.65
2022-10-13T14:27:35.369Z,44.42
2022-10-13T14:30:02.527Z,44.09
2022-10-13T14:32:29.576Z,45.56
2022-10-13T14:34:56.506Z,47.21
2022-10-13T14:37:25.079Z,46.78
2022-10-13T14:39:54.802Z,45.05
2022-10-13T14:42:21.757Z,45.67
2022-10-13T14:44:48.726Z,46.54
2022-10-13T14:47:15.616Z,47.71
2022-10-13T14:49:42.524Z,47.33
2022-10-13T14:52:10.016Z,45.88
2022-10-13T14:54:40.076Z,45.59
2022-10-13T14:57:15.645Z,46.74
2022-10-13T14:59:43.166Z,46.81
2022-10-13T15:02:14.067Z,47.29
2022-10-13T15:04:51.474Z,47.38
2022-10-13T15:07:18.866Z,49.81
2022-10-13T15:09:52.714Z,51.34
2022-10-13T15:12:28.206Z,50.97
2022-10-13T15:14:55.164Z,50.73
2022-10-13T15:17:22.124Z,50.74
2022-10-13T15:19:49.109Z,51.98
2022-10-13T15:22:16.033Z,52.76
2022-10-13T15:24:43.579Z,53.73
2022-10-13T15:27:10.481Z,53.17
2022-10-13T15:29:37.496Z,53.12
2022-10-13T15:32:13.643Z,52.17
2022-10-13T15:34:41.715Z,52.33
2022-10-13T15:37:08.606Z,53.72
2022-10-13T15:39:35.773Z,53.91
2022-10-13T15:42:03.285Z,54.50
2022-10-13T15:44:50.940Z,54.46
2022-10-13T15:47:18.387Z,53.63
2022-10-13T15:49:45.233Z,53.03
2022-10-13T15:52:12.592Z,52.42
2022-10-13T15:54:39.564Z,52.46
2022-10-13T15:57:06.457Z,52.81
2022-10-13T15:59:33.367Z,53.68
2022-10-13T16:02:00.244Z,54.84
2022-10-13T16:04:27.071Z,54.65
2022-10-13T16:06:54.031Z,54.39
2022-10-13T16:09:20.967Z,53.46
2022-10-13T16:11:48.086Z,52.47
2022-10-13T16:14:15.103Z,51.36
2022-10-13T16:16:41.934Z,50.78
2022-10-13T16:19:09.014Z,50.57
2022-10-13T16:21:36.174Z,51.49
2022-10-13T16:24:05.151Z,50.88
2022-10-13T16:26:32.055Z,50.70
2022-10-13T16:28:59.001Z,50.36
2022-10-13T16:31:26.210Z,50.07
2022-10-13T16:33:53.084Z,50.48
2022-10-13T16:36:20.565Z,50.78
2022-10-13T16:38:53.086Z,51.73
2022-10-13T16:41:20.103Z,51.88
2022-10-13T16:43:48.403Z,51.46
2022-10-13T16:46:17.793Z,51.76
2022-10-13T16:48:46.068Z,52.75
2022-10-13T16:51:15.635Z,52.65
2022-10-13T16:53:42.659Z,53.33
2022-10-13T16:56:10.092Z,54.00
2022-10-13T16:58:37.017Z,53.87
2022-10-13T17:01:09.296Z,54.75
2022-10-13T17:03:39.599Z,55.05
2022-10-13T17:06:07.114Z,55.41
2022-10-13T17:08:34.904Z,56.42
2022-10-13T17:11:03.516Z,56.57
2022-10-13T17:13:31.733Z,57.19
2022-10-13T17:15:59.628Z,57.42
2022-10-13T17:18:28.263Z,57.38
2022-10-13T17:21:00.970Z,57.70
2022-10-13T17:23:29.394Z,58.30
2022-10-13T17:26:00.618Z,58.04
2022-10-13T17:28:27.733Z,57.67
2022-10-13T17:31:09.799Z,58.56
2022-10-13T17:33:37.839Z,58.93
2022-10-13T17:36:27.011Z,58.79
2022-10-13T17:38:56.031Z,59.38
2022-10-13T17:41:24.042Z,60.02
2022-10-13T17:43:52.438Z,60.27
2022-10-13T17:46:40.596Z,60.28
2022-10-13T17:49:10.054Z,59.24
2022-10-13T17:51:37.084Z,60.04
2022-10-13T17:54:04.300Z,59.69
2022-10-13T17:56:31.789Z,60.44
2022-10-13T17:59:00.403Z,61.64
2022-10-13T18:01:33.653Z,61.65
2022-10-13T18:04:08.536Z,61.38
2022-10-13T18:06:40.013Z,61.95
2022-10-13T18:09:13.001Z,61.92
2022-10-13T18:11:45.538Z,62.29
2022-10-13T18:14:15.681Z,61.24
2022-10-13T18:16:44.976Z,61.88
2022-10-13T18:19:13.632Z,62.65
2022-10-13T18:21:40.542Z,61.75
2022-10-13T18:24:09.495Z,62.57
2022-10-13T18:26:36.397Z,63.36
2022-10-13T18:29:05.863Z,64.05
2022-10-13T18:31:35.730Z,64.00
2022-10-13T18:34:08.030Z,64.64
2022-10-13T18:36:37.994Z,64.36
2022-10-13T18:39:16.781Z,64.82
2022-10-13T18:41:47.224Z,65.03
2022-10-13T18:44:14.889Z,64.65
2022-10-13T18:46:42.611Z,63.67
2022-10-13T18:49:12.855Z,63.60
2022-10-13T18:51:42.121Z,64.20
2022-10-13T18:54:09.100Z,63.54
2022-10-13T18:56:37.067Z,63.75
2022-10-13T18:59:06.287Z,63.73
2022-10-13T19:01:35.864Z,61.32
2022-10-13T19:04:03.979Z,61.20
2022-10-13T19:06:32.391Z,61.35
2022-10-13T19:09:01.853Z,60.86
2022-10-13T19:11:29.684Z,63.31
2022-10-13T19:13:57.699Z,64.75
2022-10-13T19:16:25.927Z,65.16
2022-10-13T19:18:52.856Z,66.02
2022-10-13T19:21:21.900Z,64.81
2022-10-13T19:23:49.740Z,64.44
2022-10-13T19:26:24.004Z,63.45
2022-10-13T19:28:59.827Z,64.64
2022-10-13T19:31:29.275Z,64.95
2022-10-13T19:33:56.829Z,67.22
2022-10-13T19:36:33.212Z,67.63
2022-10-13T19:39:06.795Z,66.10
2022-10-13T19:41:34.756Z,64.73
2022-10-13T19:44:02.869Z,64.51
2022-10-13T19:46:39.886Z,64.66
2022-10-13T19:49:07.108Z,64.95
2022-10-13T19:51:36.547Z,66.06
2022-10-13T19:54:04.519Z,66.55
2022-10-13T19:56:31.862Z,67.15
2022-10-13T19:58:59.595Z,67.90
2022-10-13T20:01:27.216Z,67.79
2022-10-13T20:03:54.791Z,67.15
2022-10-13T20:06:22.191Z,66.16
2022-10-13T20:08:49.380Z,66.39
2022-10-13T20:11:23.854Z,65.75
2022-10-13T20:13:52.527Z,65.16
2022-10-13T20:16:24.214Z,66.40
2022-10-13T20:18:53.933Z,67.59
2022-10-13T20:21:21.653Z,66.47
2022-10-13T20:23:49.168Z,66.17
2022-10-13T20:26:16.848Z,65.48
2022-10-13T20:28:45.506Z,67.45
2022-10-13T20:31:14.453Z,70.75
2022-10-13T20:33:41.494Z,72.05
2022-10-13T20:36:14.264Z,73.08
2022-10-13T20:38:41.346Z,73.27
2022-10-13T20:41:14.444Z,72.60
2022-10-13T20:43:41.339Z,71.82
2022-10-13T20:46:09.354Z,72.03
2022-10-13T20:49:05.025Z,71.51
2022-10-13T20:51:26.162Z,71.28
2022-10-13T20:53:53.174Z,70.60
2022-10-13T20:56:22.953Z,69.85
2022-10-13T20:58:50.972Z,68.50
2022-10-13T21:01:20.794Z,70.56
2022-10-13T21:03:54.825Z,70.08
2022-10-13T21:06:23.837Z,68.42
2022-10-13T21:08:51.456Z,68.68
2022-10-13T21:11:21.106Z,70.28
2022-10-13T21:13:49.066Z,69.16
2022-10-13T21:16:22.252Z,67.53
2022-10-13T21:18:51.047Z,66.69
2022-10-13T21:21:23.619Z,66.85
2022-10-13T21:23:55.304Z,66.54
2022-10-13T21:26:23.945Z,67.42
2022-10-13T21:28:51.832Z,67.43
2022-10-13T21:31:21.058Z,68.32
2022-10-13T21:33:48.554Z,70.91
2022-10-13T21:36:24.787Z,71.24
2022-10-13T21:38:55.004Z,71.70
2022-10-13T21:41:22.931Z,72.57
2022-10-13T21:43:51.677Z,73.01
2022-10-13T21:46:20.538Z,71.13
2022-10-13T21:48:58.724Z,70.92
2022-10-13T21:51:34.644Z,70.23
2022-10-13T21:54:07.897Z,70.39
2022-10-13T21:56:34.995Z,70.21
2022-10-13T21:59:03.686Z,71.25
2022-10-13T22:01:31.208Z,70.61
2022-10-13T22:04:00.855Z,72.17
2022-10-13T22:06:29.036Z,71.70
2022-10-13T22:08:57.780Z,70.02
2022-10-13T22:11:28.133Z,70.33
2022-10-13T22:13:57.120Z,70.92
2022-10-13T22:16:26.805Z,70.91
2022-10-13T22:18:55.634Z,70.34
2022-10-13T22:21:28.362Z,71.64
2022-10-13T22:24:00.889Z,71.32
2022-10-13T22:26:29.824Z,70.68
2022-10-13T22:28:58.397Z,69.72
2022-10-13T22:31:25.486Z,69.05
2022-10-13T22:33:53.849Z,69.66
2022-10-13T22:36:23.207Z,70.26
2022-10-13T22:38:51.706Z,70.55
2022-10-13T22:41:19.643Z,72.15
2022-10-13T22:43:51.202Z,71.20
2022-10-13T22:46:20.027Z,71.86
2022-10-13T22:48:47.289Z,73.78
2022-10-13T22:51:17.902Z,74.80
2022-10-13T22:53:44.967Z,74.52
2022-10-13T22:56:14.846Z,73.24
2022-10-13T22:58:41.939Z,73.69
2022-10-13T23:01:14.595Z,74.79
2022-10-13T23:03:42.715Z,77.32
2022-10-13T23:06:14.240Z,76.79
2022-10-13T23:08:41.623Z,75.70
2022-10-13T23:11:08.631Z,76.99
2022-10-13T23:13:35.551Z,76.78
2022-10-13T23:16:07.817Z,75.52
2022-10-13T23:18:38.485Z,74.96
2022-10-13T23:21:11.900Z,74.95
2022-10-13T23:23:39.385Z,74.59
2022-10-13T23:26:19.493Z,75.01
2022-10-13T23:28:46.393Z,75.74
2022-10-13T23:31:15.881Z,75.29
2022-10-13T23:33:43.819Z,76.18
2022-10-13T23:36:16.082Z,78.56
2022-10-13T23:38:45.074Z,79.84
2022-10-13T23:41:14.941Z,80.10
2022-10-13T23:43:42.555Z,82.38
2022-10-13T23:46:10.877Z,82.50
2022-10-13T23:48:38.732Z,80.68
2022-10-13T23:51:10.778Z,78.33
2022-10-13T23:53:38.730Z,79.13
2022-10-13T23:56:07.393Z,78.73
2022-10-13T23:58:39.219Z,79.42
